Oklahoma City, OK (73101)

1:09 AM CDT on October 21, 2014 (GMT -0500)
Crestwood | Change Station
CLOSE
Current Station
Personal Weather Station
Location: Oklahoma City, OK
Elevation: 1257 ft
Nearby Weather Stations

Elev 1257 ft 35.49 °N, 97.56 °W | Updated 5 seconds ago

Partly Cloudy
Partly Cloudy
63.7 °F
Feels Like 63.7 °F
N
0.0
Wind Variable Wind from WNW
Gusts 0.0 mph

Today
High -- | Low -- °F
--% Chance of Precip.
Yesterday
High -- | Low -- °F
Precip. -- in
7:41 AM 6:47 PM
Waning Crescent, 7% visible
Pressure 30.01 in
Visibility 7.0 miles
Clouds Clear
Dew Point 63 °F
Humidity 97%
Rainfall 0.00 in
Snow Depth Not available.
UV 0 out of 12
Pollen 5.40 out of 12
Ozone Good
PM2.5 Moderate
Flu Activity No Activity
METAR KPWA 210553Z AUTO 00000KT 7SM CLR 19/16 A3005 RMK AO2 SLP163 T01890161 10239 20178 402780150 58000

More Conditions Fewer Conditions

Pressure 30.01 in
Visibility 7.0 miles
Clouds Clear
Dew Point 63 °F
Humidity 97%
Rainfall 0.00 in
Snow Depth Not available.
UV 0 out of 12
Pollen 5.40 out of 12
Ozone Good
PM2.5 Moderate
Flu Activity No Activity
METAR KPWA 210553Z AUTO 00000KT 7SM CLR 19/16 A3005 RMK AO2 SLP163 T01890161 10239 20178 402780150 58000

More Conditions Fewer Conditions

10-Day Weather Forecast

Almanac

Astronomy

Oct. 21, 2014 Rise Set
Actual Time 7:41 AM CDT 6:47 PM CDT
Civil Twilight 7:15 AM CDT 7:13 PM CDT
Nautical Twilight 6:46 AM CDT 7:42 PM CDT
Astronomical Twilight 6:16 AM CDT 8:12 PM CDT
Moon 5:31 AM CDT 5:38 PM CDT
Length of Visible Light 11h 57m
Length of Day
11h 05m
Tomorrow will be 2m 5s shorter.
Waning Crescent, 7% of the Moon is Illuminated
Today
Waning Crescent
Oct 23
New
Oct 30
First Quarter
Nov 6
Full
Nov 14
Last Quarter

Today's Extremes

State Highs State Lows

Community

WunderPhotos

Upload Photos

1,763,614 photos uploaded!

Nearby

Air Quality

  Air Quality AQ Index Pollutant
Yesterday Good
OZONE
Yesterday Good
PM2.5
Current Moderate
PM2.5
Current Good
OZONE
Monday Good
OZONE
Monday Good
PM2.5
Tuesday Good
OZONE
Tuesday Good
PM2.5
Wednesday Moderate
OZONE
Wednesday Good
PM2.5
Thursday Moderate
OZONE
Thursday Good
PM2.5
Friday Moderate
OZONE
Friday Good
PM2.5
Saturday Moderate
OZONE
Saturday Good
PM2.5

Snow Depth

Station Depth Elevation
No new snow has been reported.

Earthquake Activity

City Distance Mag. Time & Date
Stillwater, Oklahoma 56 miles 2.5 11:26 PM CDT
2014-10-20
Medford, Oklahoma 86 miles 3.2 7:46 PM CDT
2014-10-20
Anthony, Kansas 109 miles 2.6 6:30 PM CDT
2014-10-20
Anthony, Kansas 108 miles 2.6 4:33 PM CDT
2014-10-20
Minimum magnitude displayed is 2.5.

Coastal Water Temperatures

Place Temperature
No Stations Reporting

Nearby Weather Stations